Time;durP1;ratioP1;P1;durP2;ratioP2;P2;SDS_P1;SDS_P2;PMS_P1;PMS_P2;Temp;Humidity;BMP_temperature;BMP_pressure;BME280_temperature;BME280_humidity;BME280_pressure;Samples;Min_cycle;Max_cycle;Signal;HPM_P1;HPM_P2
2022/07/05 00:00:08;;;;;;;2.58;2.00;;;15.30;99.90;;;;;;5083316;28;20051;-75
2022/07/05 00:02:33;;;;;;;3.25;1.65;;;14.20;99.90;;;;;;5085238;28;20031;-74
2022/07/05 00:04:59;;;;;;;3.63;1.77;;;14.50;99.90;;;;;;5087543;28;20048;-75
2022/07/05 00:07:25;;;;;;;3.53;2.20;;;14.10;99.90;;;;;;5069201;28;20040;-74
2022/07/05 00:09:57;;;;;;;3.85;2.15;;;14.10;99.90;;;;;;5068579;28;20044;-75
2022/07/05 00:12:26;;;;;;;16.90;12.50;;;14.00;99.90;;;;;;5084197;28;20494;-75
2022/07/05 00:14:51;;;;;;;4.63;3.58;;;14.00;99.90;;;;;;5078300;28;20032;-74
2022/07/05 00:17:18;;;;;;;4.03;2.40;;;15.20;99.90;;;;;;5087720;28;20127;-75
2022/07/05 00:19:45;;;;;;;2.67;2.20;;;14.90;99.90;;;;;;5085315;28;20375;-74
2022/07/05 00:22:12;;;;;;;3.38;2.10;;;14.30;99.90;;;;;;5087073;28;20079;-75
2022/07/05 00:24:37;;;;;;;2.92;1.83;;;14.00;99.90;;;;;;5088334;28;20123;-76
2022/07/05 00:27:03;;;;;;;1.65;1.55;;;13.90;99.90;;;;;;5088029;28;20136;-74
2022/07/05 00:29:29;;;;;;;2.25;1.63;;;13.90;99.90;;;;;;5087473;28;20403;-75
2022/07/05 00:31:55;;;;;;;2.92;1.90;;;15.10;99.90;;;;;;5086424;28;20048;-75
2022/07/05 00:34:20;;;;;;;1.65;1.55;;;13.80;99.90;;;;;;5088153;28;20048;-75
2022/07/05 00:36:46;;;;;;;5.18;2.15;;;15.00;99.90;;;;;;5087295;28;20043;-76
2022/07/05 00:39:12;;;;;;;2.40;1.63;;;13.80;99.90;;;;;;5087770;28;20072;-75
2022/07/05 00:41:38;;;;;;;2.30;1.92;;;13.80;99.90;;;;;;5067042;28;20040;-75
2022/07/05 00:44:07;;;;;;;5.95;2.40;;;15.00;99.90;;;;;;5086616;28;20044;-75
2022/07/05 00:46:33;;;;;;;2.00;1.65;;;13.80;99.90;;;;;;5088086;28;20036;-76
2022/07/05 00:48:59;;;;;;;4.50;1.92;;;13.80;99.90;;;;;;5088268;28;20399;-75
2022/07/05 00:51:28;;;;;;;3.10;1.85;;;13.60;99.90;;;;;;5081256;28;20088;-75
2022/07/05 00:53:54;;;;;;;3.72;1.90;;;13.70;99.90;;;;;;5089736;28;20090;-75
2022/07/05 00:56:22;;;;;;;3.45;1.90;;;13.60;99.90;;;;;;5074822;28;20457;-75
2022/07/05 00:58:48;;;;;;;2.38;1.98;;;13.80;99.90;;;;;;5087678;28;20128;-75
2022/07/05 01:01:16;;;;;;;6.20;2.40;;;13.50;99.90;;;;;;5091653;28;20047;-75
2022/07/05 01:03:42;;;;;;;3.85;2.50;;;13.50;99.90;;;;;;5069557;28;20039;-75
2022/07/05 01:06:10;;;;;;;3.45;2.13;;;13.40;99.90;;;;;;5077367;28;20051;-75
2022/07/05 01:08:38;;;;;;;4.18;2.55;;;14.50;99.90;;;;;;5087117;28;20518;-75
2022/07/05 01:11:04;;;;;;;3.58;2.25;;;13.30;99.90;;;;;;5073129;28;20501;-76
2022/07/05 01:13:33;;;;;;;2.58;2.38;;;13.30;99.90;;;;;;5091903;28;20508;-76
2022/07/05 01:16:00;;;;;;;5.00;2.42;;;13.30;99.90;;;;;;5091482;28;20036;-73
2022/07/05 01:18:26;;;;;;;8.27;2.50;;;13.50;99.90;;;;;;5073029;28;20036;-74
2022/07/05 01:20:52;;;;;;;9.20;2.42;;;13.40;99.90;;;;;;5091328;28;20048;-76
2022/07/05 01:23:18;;;;;;;2.75;2.30;;;13.40;99.90;;;;;;5091729;28;20069;-76
2022/07/05 01:25:46;;;;;;;4.78;2.85;;;14.70;99.90;;;;;;5077896;28;20127;-76
2022/07/05 01:28:14;;;;;;;2.92;2.65;;;13.30;99.90;;;;;;5091527;28;20086;-76
2022/07/05 01:30:41;;;;;;;4.65;3.05;;;13.30;99.90;;;;;;5091104;28;20036;-76
2022/07/05 01:33:08;;;;;;;4.00;2.58;;;13.30;99.90;;;;;;5090241;28;20047;-75
2022/07/05 01:35:35;;;;;;;3.55;3.35;;;13.30;99.90;;;;;;5088825;28;20036;-76
2022/07/05 01:38:01;;;;;;;4.10;2.83;;;13.30;99.90;;;;;;5084660;28;20055;-77
2022/07/05 01:40:27;;;;;;;4.80;2.92;;;13.20;99.90;;;;;;5086259;28;20126;-76
2022/07/05 01:42:53;;;;;;;3.08;2.88;;;13.20;99.90;;;;;;5073184;28;20186;-76
2022/07/05 01:48:09;;;;;;;4.10;2.88;;;14.20;99.90;;;;;;5087093;28;20048;-77
2022/07/05 01:50:40;;;;;;;6.13;3.40;;;13.20;99.90;;;;;;5088857;28;20036;-75
2022/07/05 01:53:10;;;;;;;4.85;3.13;;;13.20;99.90;;;;;;5071588;28;20617;-77
2022/07/05 01:55:36;;;;;;;3.17;2.88;;;13.20;99.90;;;;;;5090829;28;20055;-75
2022/07/05 01:58:02;;;;;;;6.93;3.58;;;14.00;99.90;;;;;;5089072;28;20514;-76
2022/07/05 02:00:27;;;;;;;6.90;3.45;;;13.90;99.90;;;;;;5072007;28;20360;-77
2022/07/05 02:02:55;;;;;;;4.53;3.15;;;13.50;99.90;;;;;;5076219;28;20628;-76
2022/07/05 02:05:20;;;;;;;5.85;3.03;;;14.10;99.90;;;;;;5086145;28;20044;-76
2022/07/05 02:07:47;;;;;;;7.32;3.25;;;14.20;99.90;;;;;;5051674;28;20081;-75
2022/07/05 02:10:13;;;;;;;2.95;2.72;;;14.20;99.90;;;;;;5069500;28;20040;-75
2022/07/05 02:12:39;;;;;;;3.42;3.17;;;13.60;99.90;;;;;;5079621;28;20059;-75
2022/07/05 02:15:05;;;;;;;3.50;3.20;;;13.10;99.90;;;;;;5068633;28;20044;-75
2022/07/05 02:17:30;;;;;;;3.85;3.47;;;13.00;99.90;;;;;;5089553;28;20486;-76
2022/07/05 02:19:57;;;;;;;3.65;3.30;;;13.00;99.90;;;;;;5068884;28;20044;-76
2022/07/05 02:22:23;;;;;;;4.18;3.30;;;13.10;99.90;;;;;;5088823;28;20491;-75
2022/07/05 02:24:49;;;;;;;5.38;3.45;;;12.90;99.90;;;;;;5090805;28;20036;-77
2022/07/05 02:27:14;;;;;;;3.70;2.95;;;12.90;99.90;;;;;;5090308;28;20064;-76
2022/07/05 02:29:40;;;;;;;4.72;3.70;;;12.90;99.90;;;;;;5085931;28;20044;-77
2022/07/05 02:32:06;;;;;;;4.10;3.40;;;12.90;99.90;;;;;;5089997;28;20083;-76
2022/07/05 02:34:32;;;;;;;3.95;3.38;;;12.90;99.90;;;;;;5080603;28;20510;-75
2022/07/05 02:36:58;;;;;;;3.60;3.30;;;14.20;99.90;;;;;;5088473;28;20043;-77
2022/07/05 02:39:26;;;;;;;3.88;3.35;;;12.80;99.90;;;;;;5088195;28;20500;-75
2022/07/05 02:41:51;;;;;;;7.75;3.83;;;13.50;99.90;;;;;;5087268;28;20040;-75
2022/07/05 02:44:17;;;;;;;5.45;3.58;;;13.50;99.90;;;;;;5088409;28;20036;-76
2022/07/05 02:46:43;;;;;;;4.20;3.75;;;12.80;99.90;;;;;;5079808;28;20099;-76
2022/07/05 02:49:08;;;;;;;4.70;4.22;;;12.80;99.90;;;;;;5075978;28;20092;-76
2022/07/05 02:51:34;;;;;;;3.97;3.58;;;12.70;99.90;;;;;;5089232;28;20436;-76
2022/07/05 02:54:00;;;;;;;4.30;4.00;;;12.70;99.90;;;;;;5088278;28;20082;-75
2022/07/05 02:56:25;;;;;;;7.25;3.83;;;12.70;99.90;;;;;;5089477;28;20032;-75
2022/07/05 02:58:51;;;;;;;5.40;4.03;;;12.70;99.90;;;;;;5088947;28;20127;-76
2022/07/05 03:01:16;;;;;;;4.28;3.88;;;12.80;99.90;;;;;;5071837;28;20509;-75
2022/07/05 03:03:42;;;;;;;7.63;4.32;;;12.80;99.90;;;;;;5086913;28;20082;-75
2022/07/05 03:06:08;;;;;;;4.07;3.67;;;12.80;99.90;;;;;;5089527;28;20044;-76
2022/07/05 03:08:34;;;;;;;4.32;3.97;;;13.10;99.90;;;;;;5085943;28;20076;-75
2022/07/05 03:10:59;;;;;;;3.90;3.60;;;12.70;99.90;;;;;;5086476;28;20064;-75
2022/07/05 03:13:25;;;;;;;5.93;3.65;;;12.60;99.90;;;;;;5087766;28;20122;-76
2022/07/05 03:15:50;;;;;;;4.43;4.03;;;12.70;99.90;;;;;;5073642;28;20068;-76
2022/07/05 03:18:19;;;;;;;4.88;3.85;;;14.00;99.90;;;;;;5104364;28;20057;-75
2022/07/05 03:20:44;;;;;;;5.00;4.05;;;13.70;99.90;;;;;;5080485;28;20399;-76
2022/07/05 03:23:10;;;;;;;7.65;4.18;;;13.80;99.90;;;;;;5089730;28;20080;-76
2022/07/05 03:25:35;;;;;;;7.10;4.47;;;13.70;99.90;;;;;;5089200;28;20106;-75
2022/07/05 03:28:01;;;;;;;5.38;4.88;;;12.60;99.90;;;;;;5088480;28;20117;-76
2022/07/05 03:30:27;;;;;;;5.78;4.38;;;12.70;99.90;;;;;;5069033;28;20130;-76
2022/07/05 03:32:53;;;;;;;8.35;5.18;;;13.50;99.90;;;;;;5088219;28;20044;-76
2022/07/05 03:35:18;;;;;;;5.22;4.72;;;12.60;99.90;;;;;;5088930;28;20043;-75
2022/07/05 03:37:44;;;;;;;7.25;4.90;;;12.60;99.90;;;;;;5070986;28;20061;-75
2022/07/05 03:40:12;;;;;;;6.85;4.45;;;12.60;99.90;;;;;;5088269;28;20410;-75
2022/07/05 03:42:40;;;;;;;6.07;4.38;;;12.60;99.90;;;;;;5072696;28;20040;-75
2022/07/05 03:45:06;;;;;;;6.47;4.22;;;13.90;99.90;;;;;;5087062;28;20260;-74
2022/07/05 03:47:32;;;;;;;5.53;5.03;;;12.60;99.90;;;;;;5070523;28;21037;-73
2022/07/05 03:49:57;;;;;;;5.53;4.35;;;12.70;99.90;;;;;;5083372;28;20173;-74
2022/07/05 03:52:23;;;;;;;4.70;4.30;;;12.60;99.90;;;;;;5085902;28;20166;-74
2022/07/05 03:54:49;;;;;;;5.13;4.13;;;12.70;99.90;;;;;;5087984;28;20044;-75
2022/07/05 03:57:14;;;;;;;6.60;4.10;;;12.60;99.90;;;;;;5086442;28;20125;-74
2022/07/05 03:59:40;;;;;;;4.55;4.15;;;12.70;99.90;;;;;;5070077;28;20478;-76
2022/07/05 04:02:08;;;;;;;6.53;4.80;;;12.80;99.90;;;;;;5085550;28;20028;-75
2022/07/05 04:04:34;;;;;;;5.00;4.30;;;13.60;99.90;;;;;;5087772;28;20050;-75
2022/07/05 04:07:00;;;;;;;6.57;4.93;;;12.70;99.90;;;;;;5088120;28;20048;-75
2022/07/05 04:09:26;;;;;;;4.85;4.35;;;12.70;99.90;;;;;;5087378;28;20390;-75
2022/07/05 04:11:51;;;;;;;5.30;4.75;;;12.80;99.90;;;;;;5088248;28;20040;-75
2022/07/05 04:14:17;;;;;;;5.90;5.40;;;13.60;99.90;;;;;;5070068;28;20028;-74
2022/07/05 04:16:44;;;;;;;6.93;5.65;;;13.30;99.90;;;;;;5086713;28;20032;-75
2022/07/05 04:19:10;;;;;;;9.60;5.57;;;13.10;99.90;;;;;;5087728;28;20108;-75
2022/07/05 04:21:36;;;;;;;6.65;4.50;;;13.30;99.90;;;;;;5085356;28;20037;-73
2022/07/05 04:24:02;;;;;;;5.93;5.05;;;12.90;99.90;;;;;;5085510;28;20059;-74
2022/07/05 04:26:28;;;;;;;11.05;8.00;;;13.00;99.90;;;;;;5053335;28;20044;-74
2022/07/05 04:28:53;;;;;;;10.18;5.30;;;13.00;99.90;;;;;;5086492;28;20153;-74
2022/07/05 04:31:19;;;;;;;5.93;4.82;;;13.10;99.90;;;;;;5087318;28;20435;-74
2022/07/05 04:33:46;;;;;;;7.05;4.35;;;13.10;99.90;;;;;;5085728;28;20044;-75
2022/07/05 04:36:11;;;;;;;9.43;4.20;;;13.80;99.90;;;;;;5087901;28;20036;-75
2022/07/05 04:38:37;;;;;;;7.18;4.20;;;13.70;99.90;;;;;;5084526;28;20054;-74
2022/07/05 04:41:02;;;;;;;5.32;4.80;;;14.80;99.90;;;;;;5083340;28;20047;-75
2022/07/05 04:43:28;;;;;;;4.80;4.40;;;13.10;99.90;;;;;;5087491;28;20047;-75
2022/07/05 04:45:54;;;;;;;9.88;7.40;;;14.00;99.90;;;;;;5066647;28;20056;-75
2022/07/05 04:48:19;;;;;;;7.35;6.32;;;14.50;99.90;;;;;;5073770;28;20189;-75
2022/07/05 04:50:45;;;;;;;10.95;7.63;;;13.10;99.90;;;;;;5082871;28;20040;-75
2022/07/05 04:53:11;;;;;;;6.50;4.30;;;13.10;99.90;;;;;;5086251;28;20051;-76
2022/07/05 04:55:36;;;;;;;8.15;4.18;;;13.80;99.90;;;;;;5064343;28;20024;-75
2022/07/05 04:58:15;;;;;;;5.70;4.63;;;14.20;99.90;;;;;;5084530;28;20043;-78
2022/07/05 05:00:46;;;;;;;4.60;4.20;;;13.10;99.90;;;;;;5087730;28;20105;-74
2022/07/05 05:03:12;;;;;;;6.30;4.90;;;13.00;99.90;;;;;;5088780;28;20059;-75
2022/07/05 05:05:37;;;;;;;9.23;5.47;;;13.70;99.90;;;;;;5088346;28;20044;-75
2022/07/05 05:08:03;;;;;;;4.38;3.97;;;13.20;99.90;;;;;;5082360;28;20487;-76
2022/07/05 05:10:29;;;;;;;5.50;4.30;;;13.20;99.90;;;;;;5087274;28;20044;-75
2022/07/05 05:12:55;;;;;;;5.65;5.00;;;13.20;99.90;;;;;;5083588;28;20048;-75
2022/07/05 05:15:21;;;;;;;6.18;4.32;;;13.20;99.90;;;;;;5071036;28;20051;-75
2022/07/05 05:17:47;;;;;;;6.00;3.90;;;13.40;99.90;;;;;;5071950;28;20093;-75
2022/07/05 05:20:15;;;;;;;7.53;3.90;;;13.80;99.90;;;;;;5080177;28;20131;-75
2022/07/05 05:22:44;;;;;;;3.70;3.40;;;13.30;99.90;;;;;;5080643;28;20395;-74
2022/07/05 05:25:10;;;;;;;5.28;3.90;;;13.30;99.90;;;;;;5088532;28;20055;-74
2022/07/05 05:27:47;;;;;;;8.07;5.15;;;13.40;99.90;;;;;;5081947;28;20048;-76
2022/07/05 05:30:14;;;;;;;8.43;6.38;;;13.40;99.90;;;;;;5083320;28;20506;-77
2022/07/05 05:32:40;;;;;;;9.27;5.63;;;13.50;99.90;;;;;;5084857;28;20487;-76
2022/07/05 05:35:07;;;;;;;4.40;3.97;;;13.50;99.90;;;;;;5071420;28;20047;-76
2022/07/05 05:37:54;;;;;;;7.63;5.65;;;13.60;99.90;;;;;;5091376;28;20044;-77
2022/07/05 05:40:20;;;;;;;3.80;3.53;;;13.70;99.90;;;;;;5090602;28;20040;-75
2022/07/05 05:42:46;;;;;;;3.55;3.30;;;14.20;99.90;;;;;;5088100;28;20095;-74
2022/07/05 05:45:12;;;;;;;4.13;3.30;;;13.80;99.90;;;;;;5089267;28;20051;-78
2022/07/05 05:47:47;;;;;;;2.88;2.67;;;13.90;99.90;;;;;;4737112;28;10000146;-74
2022/07/05 05:50:13;;;;;;;3.08;2.53;;;14.00;99.90;;;;;;5086759;28;20668;-76
2022/07/05 05:52:39;;;;;;;5.18;3.40;;;14.10;99.90;;;;;;5093248;28;20042;-74
2022/07/05 05:55:05;;;;;;;4.40;2.38;;;14.20;99.90;;;;;;5073876;28;20480;-80
2022/07/05 05:57:34;;;;;;;3.15;2.67;;;14.20;99.90;;;;;;5100999;28;20541;-76
2022/07/05 05:59:59;;;;;;;7.00;2.67;;;14.30;99.90;;;;;;5084228;28;20164;-76
2022/07/05 06:02:25;;;;;;;3.40;2.78;;;15.00;99.90;;;;;;5076684;28;20063;-78
2022/07/05 06:04:51;;;;;;;3.58;2.35;;;14.40;99.90;;;;;;5087260;28;20111;-77
2022/07/05 06:07:16;;;;;;;3.85;2.13;;;15.40;99.90;;;;;;5090105;28;20067;-78
2022/07/05 06:09:42;;;;;;;3.70;2.10;;;15.80;99.90;;;;;;5075673;28;20044;-75
2022/07/05 06:12:09;;;;;;;5.60;1.70;;;14.70;99.90;;;;;;5088308;28;20501;-82
2022/07/05 06:14:35;;;;;;;4.55;1.52;;;14.80;99.90;;;;;;5087910;28;20052;-79
2022/07/05 06:17:00;;;;;;;7.45;1.50;;;14.80;99.90;;;;;;5087694;28;20051;-78
2022/07/05 06:19:26;;;;;;;3.63;1.00;;;15.20;99.90;;;;;;5087246;28;20050;-78
2022/07/05 06:21:52;;;;;;;8.07;1.25;;;15.00;99.90;;;;;;5088587;28;20045;-74
2022/07/05 06:24:17;;;;;;;5.28;1.20;;;15.10;99.90;;;;;;5089074;28;20048;-79
2022/07/05 06:26:43;;;;;;;4.30;1.08;;;15.20;99.90;;;;;;5088736;28;20479;-77
2022/07/05 06:29:08;;;;;;;4.93;1.27;;;15.30;99.90;;;;;;5089357;28;20040;-78
2022/07/05 06:31:34;;;;;;;3.95;1.40;;;15.60;99.90;;;;;;5076084;28;20051;-77
2022/07/05 06:33:59;;;;;;;8.68;3.85;;;16.30;99.90;;;;;;5089568;28;20647;-77
2022/07/05 06:36:25;;;;;;;6.25;0.95;;;15.40;99.90;;;;;;5088479;28;20036;-77
2022/07/05 06:38:51;;;;;;;5.13;0.90;;;15.60;99.90;;;;;;5089144;28;20131;-77
2022/07/05 06:41:16;;;;;;;5.45;0.82;;;15.70;99.90;;;;;;5089484;28;20028;-77
2022/07/05 06:43:42;;;;;;;4.65;1.30;;;15.90;99.90;;;;;;5088473;28;20134;-76
2022/07/05 06:46:07;;;;;;;8.32;1.10;;;15.80;99.90;;;;;;5088730;28;20368;-76
2022/07/05 06:48:33;;;;;;;6.85;1.13;;;15.90;99.90;;;;;;5071705;28;20083;-76
2022/07/05 06:50:59;;;;;;;4.32;1.00;;;16.00;99.90;;;;;;5089254;28;20595;-76
2022/07/05 06:53:24;;;;;;;1.77;0.70;;;16.10;99.90;;;;;;5090578;28;20039;-76
2022/07/05 06:55:50;;;;;;;5.38;0.95;;;16.70;99.90;;;;;;5085349;28;20126;-76
2022/07/05 06:58:22;;;;;;;4.13;1.25;;;16.10;99.90;;;;;;5084730;28;20073;-76
2022/07/05 07:00:51;;;;;;;6.28;0.63;;;16.20;99.90;;;;;;5075948;28;20082;-77
2022/07/05 07:03:16;;;;;;;4.80;0.50;;;16.30;99.90;;;;;;5079855;28;20402;-78
2022/07/05 07:05:42;;;;;;;4.95;0.70;;;16.30;99.90;;;;;;5086713;28;20042;-75
2022/07/05 07:10:53;;;;;;;7.68;1.15;;;17.20;99.90;;;;;;5088160;28;20087;-78
2022/07/05 07:13:19;;;;;;;5.13;1.00;;;16.50;99.90;;;;;;5072318;28;20071;-75
2022/07/05 07:15:46;;;;;;;6.50;0.65;;;17.00;99.90;;;;;;5085014;28;20044;-75
2022/07/05 07:18:12;;;;;;;3.97;0.40;;;17.20;99.90;;;;;;5093185;28;20044;-75
2022/07/05 07:20:37;;;;;;;10.32;0.88;;;16.70;99.90;;;;;;5075653;28;20085;-76
2022/07/05 07:23:03;;;;;;;7.20;0.77;;;17.90;99.90;;;;;;5090344;28;20134;-74
2022/07/05 07:25:29;;;;;;;7.40;0.63;;;16.80;99.90;;;;;;5088741;28;20036;-77
2022/07/05 07:27:55;;;;;;;3.75;0.70;;;16.80;99.90;;;;;;5087107;28;20102;-76
2022/07/05 07:30:26;;;;;;;1.60;0.30;;;16.80;99.90;;;;;;5085722;28;20074;-76
2022/07/05 07:32:52;;;;;;;3.17;0.65;;;16.80;99.90;;;;;;5083874;28;20312;-75
2022/07/05 07:35:18;;;;;;;9.18;0.82;;;16.80;99.90;;;;;;5080993;28;20040;-74
2022/07/05 07:37:44;;;;;;;3.30;0.70;;;16.80;99.90;;;;;;5085948;28;20036;-78
2022/07/05 07:40:10;;;;;;;5.55;0.40;;;16.90;99.90;;;;;;5091560;28;20043;-75
2022/07/05 07:42:36;;;;;;;3.35;0.90;;;16.90;99.90;;;;;;5077215;28;20119;-75
2022/07/05 07:45:04;;;;;;;4.55;0.57;;;17.00;99.90;;;;;;5083175;28;20459;-75
2022/07/05 07:47:31;;;;;;;7.53;0.73;;;17.10;99.90;;;;;;5099416;28;20444;-78
2022/07/05 07:49:56;;;;;;;5.38;0.85;;;17.20;99.90;;;;;;5087684;28;20414;-78
2022/07/05 07:52:22;;;;;;;3.10;0.38;;;17.40;99.90;;;;;;5074585;28;20127;-77
2022/07/05 07:54:48;;;;;;;3.40;0.70;;;17.30;99.90;;;;;;5088480;28;20396;-77
2022/07/05 07:57:13;;;;;;;4.18;0.75;;;17.30;99.90;;;;;;5090528;28;20075;-77
2022/07/05 07:59:39;;;;;;;7.43;0.65;;;17.30;99.90;;;;;;5095521;28;20036;-77
2022/07/05 08:02:05;;;;;;;10.07;1.25;;;17.30;99.90;;;;;;5072810;28;20182;-76
2022/07/05 08:04:30;;;;;;;4.53;0.73;;;17.20;99.90;;;;;;5054057;28;20755;-74
2022/07/05 08:06:59;;;;;;;2.78;0.40;;;17.30;99.90;;;;;;5087959;28;20519;-78
2022/07/05 08:09:24;;;;;;;2.28;0.47;;;17.30;99.90;;;;;;5089742;28;20122;-78
2022/07/05 08:11:50;;;;;;;3.83;0.50;;;17.30;99.90;;;;;;5075693;28;20127;-75
2022/07/05 08:14:17;;;;;;;5.25;0.57;;;17.20;99.90;;;;;;5086852;28;20074;-76
2022/07/05 08:16:47;;;;;;;2.78;0.60;;;17.60;99.90;;;;;;5074768;28;20044;-78
2022/07/05 08:21:57;;;;;;;4.10;0.50;;;17.40;99.90;;;;;;5087790;28;20036;-78
2022/07/05 08:24:23;;;;;;;5.57;0.60;;;18.10;99.90;;;;;;5090162;28;20126;-79
2022/07/05 08:26:48;;;;;;;4.95;0.52;;;17.50;99.90;;;;;;5086404;28;20059;-75
2022/07/05 08:29:14;;;;;;;7.30;0.47;;;17.60;99.90;;;;;;5087459;28;20047;-80
2022/07/05 08:31:42;;;;;;;1.90;0.65;;;17.70;99.90;;;;;;5087710;28;20072;-81
2022/07/05 08:34:09;;;;;;;0.80;0.20;;;17.70;99.90;;;;;;5086638;28;20097;-77
2022/07/05 08:36:34;;;;;;;7.68;0.52;;;17.80;99.90;;;;;;5070678;28;20050;-78
2022/07/05 08:39:00;;;;;;;3.17;0.50;;;17.80;99.90;;;;;;5076997;28;20413;-78
2022/07/05 08:41:26;;;;;;;3.25;0.70;;;17.80;99.90;;;;;;5087010;28;20080;-78
2022/07/05 08:43:52;;;;;;;4.60;0.80;;;17.90;99.90;;;;;;5087958;28;20044;-78
2022/07/05 08:46:19;;;;;;;1.40;0.20;;;17.90;99.90;;;;;;5086647;28;20060;-74
2022/07/05 08:48:48;;;;;;;2.45;0.43;;;18.10;99.90;;;;;;5086700;28;20039;-75
2022/07/05 08:51:23;;;;;;;4.13;0.35;;;18.10;99.90;;;;;;5087292;28;20048;-79
2022/07/05 08:53:51;;;;;;;3.70;0.80;;;18.10;99.90;;;;;;5086340;28;20454;-77
2022/07/05 08:56:17;;;;;;;1.00;0.30;;;18.90;99.90;;;;;;5089806;28;20040;-75
2022/07/05 08:58:43;;;;;;;6.68;0.73;;;19.00;99.90;;;;;;5090032;28;20058;-78
2022/07/05 09:01:10;;;;;;;6.88;0.90;;;18.30;99.90;;;;;;5088331;28;20032;-81
2022/07/05 09:03:43;;;;;;;4.43;0.60;;;18.30;99.90;;;;;;5086930;28;20080;-78
2022/07/05 09:06:11;;;;;;;6.07;0.70;;;18.60;99.90;;;;;;5075396;28;20181;-81
2022/07/05 09:08:39;;;;;;;3.25;0.35;;;18.60;99.90;;;;;;5086573;28;20036;-80
2022/07/05 09:11:08;;;;;;;2.78;0.50;;;18.80;99.90;;;;;;5091199;28;20043;-79
2022/07/05 09:13:35;;;;;;;2.10;0.30;;;18.60;99.90;;;;;;5091697;28;20059;-77
2022/07/05 09:16:02;;;;;;;3.20;0.43;;;19.20;99.90;;;;;;5090091;28;20071;-81
2022/07/05 09:18:51;;;;;;;5.60;0.63;;;18.40;99.90;;;;;;5091240;28;20362;-78
2022/07/05 09:21:27;;;;;;;6.85;0.65;;;18.40;99.90;;;;;;5090450;28;20394;-78
2022/07/05 09:24:04;;;;;;;4.90;0.63;;;18.50;99.90;;;;;;5082550;28;20035;-75
2022/07/05 09:26:48;;;;;;;2.58;0.30;;;18.50;99.90;;;;;;5090004;28;20040;-77
2022/07/05 09:29:23;;;;;;;3.28;0.57;;;18.50;99.90;;;;;;5089828;28;20043;-81
2022/07/05 09:31:49;;;;;;;4.50;0.60;;;18.50;99.90;;;;;;5090166;28;20402;-77
2022/07/05 09:34:17;;;;;;;7.57;0.82;;;18.40;99.90;;;;;;5091321;28;20047;-80
2022/07/05 09:36:49;;;;;;;6.95;1.73;;;18.30;99.90;;;;;;5089228;28;20067;-81
2022/07/05 09:39:16;;;;;;;3.53;0.43;;;18.30;99.90;;;;;;5091039;28;20040;-82
2022/07/05 09:41:41;;;;;;;3.33;0.40;;;18.40;99.90;;;;;;5093878;28;20077;-77
2022/07/05 09:44:07;;;;;;;5.25;0.70;;;18.30;99.90;;;;;;5106799;28;20040;-75
2022/07/05 09:46:33;;;;;;;1.48;0.55;;;18.30;99.90;;;;;;5090209;28;20106;-75
2022/07/05 09:48:59;;;;;;;2.05;0.70;;;18.40;99.90;;;;;;5079444;28;20060;-76
2022/07/05 09:51:25;;;;;;;1.95;0.45;;;18.30;99.90;;;;;;5073291;28;20048;-74
2022/07/05 09:53:53;;;;;;;6.60;0.60;;;18.30;99.90;;;;;;5076302;28;20398;-76
2022/07/05 09:56:19;;;;;;;1.38;0.60;;;19.00;99.90;;;;;;5091068;28;20044;-78
2022/07/05 09:58:45;;;;;;;2.20;0.50;;;18.20;99.90;;;;;;5086994;28;20110;-75
2022/07/05 10:01:27;;;;;;;4.63;0.80;;;18.10;99.90;;;;;;5090893;28;20437;-79
2022/07/05 10:03:55;;;;;;;4.60;0.50;;;18.20;99.90;;;;;;5086298;28;20377;-77
2022/07/05 10:06:24;;;;;;;4.18;0.63;;;19.00;99.90;;;;;;5089812;28;20044;-75
2022/07/05 10:08:51;;;;;;;0.63;0.30;;;18.50;99.90;;;;;;5089296;28;20046;-76
2022/07/05 10:11:18;;;;;;;1.95;0.30;;;18.60;99.90;;;;;;5088606;28;20074;-75
2022/07/05 10:13:52;;;;;;;2.92;0.30;;;18.70;99.90;;;;;;4723985;28;10000606;-74
2022/07/05 10:16:19;;;;;;;;;;;18.80;99.90;;;;;;5087214;28;20149;-75
2022/07/05 10:18:46;;;;;;;3.10;0.45;;;18.90;99.90;;;;;;5087056;28;19950;-76
2022/07/05 10:21:14;;;;;;;3.20;0.47;;;18.90;99.90;;;;;;5086910;28;20487;-75
2022/07/05 10:23:44;;;;;;;6.15;0.50;;;18.90;99.90;;;;;;5086495;28;20047;-76
2022/07/05 10:26:14;;;;;;;3.50;0.52;;;18.80;99.90;;;;;;5089067;28;20047;-76
2022/07/05 10:28:41;;;;;;;3.17;0.60;;;18.70;99.90;;;;;;5088585;28;20093;-76
2022/07/05 10:31:10;;;;;;;5.32;0.25;;;18.70;99.90;;;;;;5089527;28;20119;-77
2022/07/05 10:33:36;;;;;;;4.50;0.57;;;18.60;99.90;;;;;;5070979;28;20044;-76
2022/07/05 10:36:03;;;;;;;1.90;0.30;;;19.30;99.90;;;;;;5066436;28;20151;-77
2022/07/05 10:38:30;;;;;;;2.15;0.45;;;18.80;99.90;;;;;;5089715;28;20123;-79
2022/07/05 10:41:00;;;;;;;2.22;0.30;;;18.90;99.90;;;;;;5066909;28;20071;-79
2022/07/05 10:43:28;;;;;;;2.70;0.47;;;19.70;99.90;;;;;;5070368;28;20539;-78
2022/07/05 10:45:53;;;;;;;1.35;0.35;;;19.50;99.90;;;;;;5084132;28;20040;-78
2022/07/05 10:48:24;;;;;;;2.58;0.98;;;19.50;99.90;;;;;;5088046;28;20096;-80
2022/07/05 10:50:55;;;;;;;3.70;0.60;;;19.30;99.90;;;;;;5071614;28;20028;-78
2022/07/05 10:53:36;;;;;;;4.30;0.60;;;19.20;99.90;;;;;;5086545;28;20498;-77
2022/07/05 10:56:05;;;;;;;2.13;0.52;;;19.00;99.90;;;;;;5072234;28;20585;-75
2022/07/05 10:58:45;;;;;;;2.70;1.52;;;19.00;99.90;;;;;;5091209;28;20044;-73
2022/07/05 11:01:19;;;;;;;4.63;0.98;;;18.90;99.90;;;;;;5085076;28;20040;-74
2022/07/05 11:04:00;;;;;;;2.22;0.65;;;18.90;99.90;;;;;;5084786;28;20510;-78
2022/07/05 11:06:38;;;;;;;2.85;0.40;;;19.00;99.90;;;;;;5089256;28;20043;-76
2022/07/05 11:09:04;;;;;;;4.00;0.52;;;18.90;99.90;;;;;;5089453;28;20036;-72
2022/07/05 11:11:51;;;;;;;3.05;0.60;;;18.90;99.90;;;;;;5090375;28;20067;-73
2022/07/05 11:14:25;;;;;;;2.67;0.40;;;18.90;99.90;;;;;;5069591;28;20048;-75
2022/07/05 11:17:08;;;;;;;5.85;0.55;;;19.20;99.90;;;;;;5084371;28;20156;-74
2022/07/05 11:19:54;;;;;;;4.85;0.45;;;19.00;99.90;;;;;;5088697;28;20048;-76
2022/07/05 11:22:20;;;;;;;4.20;0.52;;;19.50;99.90;;;;;;5086350;28;20044;-72
2022/07/05 11:24:46;;;;;;;4.57;0.73;;;19.50;99.90;;;;;;5087457;28;20146;-74
2022/07/05 11:27:12;;;;;;;1.77;0.93;;;19.30;99.90;;;;;;5087980;28;20418;-77
2022/07/05 11:29:51;;;;;;;1.25;0.30;;;19.70;99.90;;;;;;5080346;28;20515;-74
2022/07/05 11:32:19;;;;;;;3.70;0.40;;;19.50;99.90;;;;;;5084435;28;20040;-78
2022/07/05 11:34:46;;;;;;;2.97;0.30;;;19.70;99.90;;;;;;5097260;28;20039;-76
2022/07/05 11:37:24;;;;;;;1.92;0.20;;;19.80;98.90;;;;;;5087871;28;20065;-78
2022/07/05 11:40:10;;;;;;;2.22;0.30;;;20.40;98.90;;;;;;5088369;28;20619;-74
2022/07/05 11:42:56;;;;;;;3.60;0.47;;;19.70;99.30;;;;;;5081190;28;20540;-76
2022/07/05 11:45:22;;;;;;;4.53;0.30;;;20.50;99.90;;;;;;5085214;28;20967;-76
2022/07/05 11:47:48;;;;;;;2.67;0.40;;;19.80;99.90;;;;;;5086741;28;20040;-78
2022/07/05 11:50:14;;;;;;;1.92;0.32;;;20.10;99.90;;;;;;5070105;28;20059;-77
2022/07/05 11:52:41;;;;;;;1.02;0.22;;;20.10;98.90;;;;;;5086294;28;20036;-78
2022/07/05 11:55:09;;;;;;;1.33;0.20;;;19.90;98.60;;;;;;5070472;28;20044;-80
2022/07/05 11:57:35;;;;;;;4.50;0.57;;;19.70;99.90;;;;;;5084579;28;20534;-79
2022/07/05 12:00:01;;;;;;;4.53;0.88;;;19.40;99.90;;;;;;5087626;28;20119;-79
2022/07/05 12:02:26;;;;;;;2.15;0.90;;;19.20;99.90;;;;;;5088942;28;20154;-79
2022/07/05 12:04:57;;;;;;;6.40;1.02;;;19.10;99.90;;;;;;5084459;28;20043;-82
2022/07/05 12:07:30;;;;;;;3.50;0.63;;;19.80;99.90;;;;;;5084910;28;20032;-80
2022/07/05 12:12:44;;;;;;;4.18;0.68;;;18.70;99.90;;;;;;5081635;28;20048;-76
2022/07/05 12:15:21;;;;;;;7.22;0.55;;;18.70;99.90;;;;;;5086237;28;20043;-79
2022/07/05 12:17:55;;;;;;;4.75;0.70;;;18.50;99.90;;;;;;5080899;28;20385;-79
2022/07/05 12:20:23;;;;;;;2.38;0.40;;;18.50;99.90;;;;;;5080285;28;20051;-75
2022/07/05 12:22:49;;;;;;;5.78;1.15;;;18.40;99.90;;;;;;5087987;28;20532;-78
2022/07/05 12:25:17;;;;;;;3.25;0.47;;;18.40;99.90;;;;;;5086578;28;20043;-77
2022/07/05 12:27:44;;;;;;;4.38;0.50;;;18.40;99.90;;;;;;5084857;28;20055;-79
2022/07/05 12:30:11;;;;;;;6.97;0.50;;;18.70;99.90;;;;;;5087768;28;20505;-80
2022/07/05 12:33:05;;;;;;;5.28;0.88;;;18.60;99.90;;;;;;5082020;28;20434;-77
2022/07/05 12:35:43;;;;;;;6.10;0.55;;;18.60;99.90;;;;;;5085049;28;20037;-76
2022/07/05 12:38:10;;;;;;;1.98;0.35;;;18.80;99.90;;;;;;5086103;28;20040;-78
2022/07/05 12:40:41;;;;;;;4.03;0.77;;;19.60;99.90;;;;;;5083540;28;20073;-74
2022/07/05 12:43:12;;;;;;;2.00;0.40;;;19.10;99.90;;;;;;5083879;28;20359;-79
2022/07/05 12:45:39;;;;;;;3.55;0.63;;;19.00;99.90;;;;;;5088207;28;20101;-80
2022/07/05 12:48:07;;;;;;;4.53;1.55;;;19.00;99.90;;;;;;5090826;28;20040;-77
2022/07/05 12:50:46;;;;;;;3.75;1.95;;;19.10;99.90;;;;;;5095063;28;20051;-76
2022/07/05 12:58:57;;;;;;;6.53;1.10;;;19.90;99.90;;;;;;5091178;28;20063;-76
2022/07/05 13:01:28;;;;;;;3.83;0.73;;;20.00;99.90;;;;;;5093347;28;20036;-76
2022/07/05 13:04:10;;;;;;;3.97;0.80;;;20.20;99.90;;;;;;5087182;28;20044;-74